sensor_id;sensor_type;location;lat;lon;timestamp;P1;durP1;ratioP1;P2;durP2;ratioP2
40501;SDS011;29631;49.168;9.848;2022-12-07T00:01:15;3.47;;;3.28;;
40501;SDS011;29631;49.168;9.848;2022-12-07T00:03:51;3.50;;;3.30;;
40501;SDS011;29631;49.168;9.848;2022-12-07T00:06:19;3.80;;;3.50;;
40501;SDS011;29631;49.168;9.848;2022-12-07T00:08:45;4.00;;;3.70;;
40501;SDS011;29631;49.168;9.848;2022-12-07T00:11:13;3.63;;;3.42;;
40501;SDS011;29631;49.168;9.848;2022-12-07T00:13:43;3.75;;;3.55;;
40501;SDS011;29631;49.168;9.848;2022-12-07T00:16:10;4.10;;;3.83;;
40501;SDS011;29631;49.168;9.848;2022-12-07T00:18:39;3.90;;;3.60;;
40501;SDS011;29631;49.168;9.848;2022-12-07T00:21:08;3.88;;;3.67;;
40501;SDS011;29631;49.168;9.848;2022-12-07T00:23:46;4.28;;;3.97;;
40501;SDS011;29631;49.168;9.848;2022-12-07T00:26:14;3.72;;;3.42;;
40501;SDS011;29631;49.168;9.848;2022-12-07T00:28:53;4.10;;;3.80;;
40501;SDS011;29631;49.168;9.848;2022-12-07T00:31:21;4.72;;;4.43;;
40501;SDS011;29631;49.168;9.848;2022-12-07T00:33:50;4.53;;;4.22;;
40501;SDS011;29631;49.168;9.848;2022-12-07T00:36:17;4.80;;;4.40;;
40501;SDS011;29631;49.168;9.848;2022-12-07T00:38:45;4.43;;;4.13;;
40501;SDS011;29631;49.168;9.848;2022-12-07T00:41:12;4.57;;;4.28;;
40501;SDS011;29631;49.168;9.848;2022-12-07T00:43:41;4.85;;;4.55;;
40501;SDS011;29631;49.168;9.848;2022-12-07T00:46:09;4.57;;;4.18;;
40501;SDS011;29631;49.168;9.848;2022-12-07T00:48:35;4.25;;;3.95;;
40501;SDS011;29631;49.168;9.848;2022-12-07T00:51:02;4.38;;;4.07;;
40501;SDS011;29631;49.168;9.848;2022-12-07T00:53:28;5.55;;;5.15;;
40501;SDS011;29631;49.168;9.848;2022-12-07T00:55:54;4.38;;;4.07;;
40501;SDS011;29631;49.168;9.848;2022-12-07T00:58:21;5.00;;;4.70;;
40501;SDS011;29631;49.168;9.848;2022-12-07T01:00:48;4.40;;;4.10;;
40501;SDS011;29631;49.168;9.848;2022-12-07T01:03:14;4.80;;;4.50;;
40501;SDS011;29631;49.168;9.848;2022-12-07T01:05:51;4.82;;;4.43;;
40501;SDS011;29631;49.168;9.848;2022-12-07T01:08:19;5.28;;;4.97;;
40501;SDS011;29631;49.168;9.848;2022-12-07T01:10:46;4.82;;;4.53;;
40501;SDS011;29631;49.168;9.848;2022-12-07T01:13:12;4.35;;;4.05;;
40501;SDS011;29631;49.168;9.848;2022-12-07T01:15:39;5.00;;;4.70;;
40501;SDS011;29631;49.168;9.848;2022-12-07T01:18:09;5.57;;;5.18;;
40501;SDS011;29631;49.168;9.848;2022-12-07T01:20:36;4.93;;;4.63;;
40501;SDS011;29631;49.168;9.848;2022-12-07T01:23:02;5.40;;;5.00;;
40501;SDS011;29631;49.168;9.848;2022-12-07T01:25:28;5.80;;;5.30;;
40501;SDS011;29631;49.168;9.848;2022-12-07T01:27:54;5.05;;;4.65;;
40501;SDS011;29631;49.168;9.848;2022-12-07T01:30:20;5.35;;;4.95;;
40501;SDS011;29631;49.168;9.848;2022-12-07T01:32:45;5.80;;;5.30;;
40501;SDS011;29631;49.168;9.848;2022-12-07T01:35:11;5.40;;;5.00;;
40501;SDS011;29631;49.168;9.848;2022-12-07T01:37:37;5.50;;;5.00;;
40501;SDS011;29631;49.168;9.848;2022-12-07T01:40:05;5.72;;;5.32;;
40501;SDS011;29631;49.168;9.848;2022-12-07T01:42:33;5.57;;;5.18;;
40501;SDS011;29631;49.168;9.848;2022-12-07T01:47:47;5.75;;;5.25;;
40501;SDS011;29631;49.168;9.848;2022-12-07T01:50:18;6.22;;;5.70;;
40501;SDS011;29631;49.168;9.848;2022-12-07T01:52:45;6.40;;;5.90;;
40501;SDS011;29631;49.168;9.848;2022-12-07T01:55:15;6.13;;;5.63;;
40501;SDS011;29631;49.168;9.848;2022-12-07T01:57:43;6.28;;;5.78;;
40501;SDS011;29631;49.168;9.848;2022-12-07T02:00:14;5.80;;;5.30;;
40501;SDS011;29631;49.168;9.848;2022-12-07T02:02:45;6.65;;;6.05;;
40501;SDS011;29631;49.168;9.848;2022-12-07T02:05:35;5.88;;;5.47;;
40501;SDS011;29631;49.168;9.848;2022-12-07T02:08:03;5.30;;;4.80;;
40501;SDS011;29631;49.168;9.848;2022-12-07T02:10:30;6.10;;;5.60;;
40501;SDS011;29631;49.168;9.848;2022-12-07T02:13:08;5.78;;;5.30;;
40501;SDS011;29631;49.168;9.848;2022-12-07T02:16:13;5.55;;;5.15;;
40501;SDS011;29631;49.168;9.848;2022-12-07T02:27:53;6.05;;;5.55;;
40501;SDS011;29631;49.168;9.848;2022-12-07T02:30:39;5.65;;;5.25;;
40501;SDS011;29631;49.168;9.848;2022-12-07T02:33:28;6.10;;;5.60;;
40501;SDS011;29631;49.168;9.848;2022-12-07T02:38:38;6.75;;;6.00;;
40501;SDS011;29631;49.168;9.848;2022-12-07T02:41:21;5.78;;;5.38;;
40501;SDS011;29631;49.168;9.848;2022-12-07T02:43:53;5.60;;;5.20;;
40501;SDS011;29631;49.168;9.848;2022-12-07T02:46:28;6.10;;;5.60;;
40501;SDS011;29631;49.168;9.848;2022-12-07T02:48:58;5.85;;;5.35;;
40501;SDS011;29631;49.168;9.848;2022-12-07T02:51:25;6.40;;;5.90;;
40501;SDS011;29631;49.168;9.848;2022-12-07T02:53:55;6.18;;;5.72;;
40501;SDS011;29631;49.168;9.848;2022-12-07T03:05:15;5.78;;;5.38;;
40501;SDS011;29631;49.168;9.848;2022-12-07T03:08:30;5.97;;;5.47;;
40501;SDS011;29631;49.168;9.848;2022-12-07T03:11:08;5.50;;;5.00;;
40501;SDS011;29631;49.168;9.848;2022-12-07T03:13:50;5.93;;;5.38;;
40501;SDS011;29631;49.168;9.848;2022-12-07T03:16:40;5.60;;;5.15;;
40501;SDS011;29631;49.168;9.848;2022-12-07T03:19:16;6.20;;;5.70;;
40501;SDS011;29631;49.168;9.848;2022-12-07T03:21:47;6.03;;;5.53;;
40501;SDS011;29631;49.168;9.848;2022-12-07T03:24:22;5.55;;;5.10;;
40501;SDS011;29631;49.168;9.848;2022-12-07T03:26:56;6.55;;;5.95;;
40501;SDS011;29631;49.168;9.848;2022-12-07T03:29:39;6.55;;;5.97;;
40501;SDS011;29631;49.168;9.848;2022-12-07T03:32:23;6.13;;;5.57;;
40501;SDS011;29631;49.168;9.848;2022-12-07T03:35:01;5.97;;;5.47;;
40501;SDS011;29631;49.168;9.848;2022-12-07T03:37:38;6.28;;;5.78;;
40501;SDS011;29631;49.168;9.848;2022-12-07T03:40:23;6.53;;;5.95;;
40501;SDS011;29631;49.168;9.848;2022-12-07T03:43:04;6.85;;;6.32;;
40501;SDS011;29631;49.168;9.848;2022-12-07T03:45:34;7.07;;;6.47;;
40501;SDS011;29631;49.168;9.848;2022-12-07T03:48:24;6.75;;;6.15;;
40501;SDS011;29631;49.168;9.848;2022-12-07T03:54:37;6.55;;;5.95;;
40501;SDS011;29631;49.168;9.848;2022-12-07T03:56:57;6.38;;;5.88;;
40501;SDS011;29631;49.168;9.848;2022-12-07T03:59:25;6.88;;;6.28;;
40501;SDS011;29631;49.168;9.848;2022-12-07T04:01:56;6.95;;;6.35;;
40501;SDS011;29631;49.168;9.848;2022-12-07T04:04:26;7.10;;;6.50;;
40501;SDS011;29631;49.168;9.848;2022-12-07T04:06:53;6.35;;;5.82;;
40501;SDS011;29631;49.168;9.848;2022-12-07T04:09:18;6.90;;;6.32;;
40501;SDS011;29631;49.168;9.848;2022-12-07T04:11:45;7.00;;;6.40;;
40501;SDS011;29631;49.168;9.848;2022-12-07T04:14:11;6.38;;;5.88;;
40501;SDS011;29631;49.168;9.848;2022-12-07T04:19:17;7.25;;;6.55;;
40501;SDS011;29631;49.168;9.848;2022-12-07T04:21:45;7.00;;;6.40;;
40501;SDS011;29631;49.168;9.848;2022-12-07T04:24:12;6.97;;;6.40;;
40501;SDS011;29631;49.168;9.848;2022-12-07T04:26:39;6.63;;;6.07;;
40501;SDS011;29631;49.168;9.848;2022-12-07T04:29:06;6.55;;;6.05;;
40501;SDS011;29631;49.168;9.848;2022-12-07T04:31:33;6.57;;;6.07;;
40501;SDS011;29631;49.168;9.848;2022-12-07T04:33:59;7.40;;;6.80;;
40501;SDS011;29631;49.168;9.848;2022-12-07T04:36:25;7.25;;;6.65;;
40501;SDS011;29631;49.168;9.848;2022-12-07T04:38:53;6.85;;;6.28;;
40501;SDS011;29631;49.168;9.848;2022-12-07T04:41:19;7.20;;;6.60;;
40501;SDS011;29631;49.168;9.848;2022-12-07T04:43:52;6.55;;;6.05;;
40501;SDS011;29631;49.168;9.848;2022-12-07T04:46:22;7.93;;;7.22;;
40501;SDS011;29631;49.168;9.848;2022-12-07T04:48:50;7.18;;;6.57;;
40501;SDS011;29631;49.168;9.848;2022-12-07T04:51:18;7.18;;;6.57;;
40501;SDS011;29631;49.168;9.848;2022-12-07T04:53:50;6.47;;;5.97;;
40501;SDS011;29631;49.168;9.848;2022-12-07T04:56:17;6.47;;;5.97;;
40501;SDS011;29631;49.168;9.848;2022-12-07T04:58:44;6.47;;;5.97;;
40501;SDS011;29631;49.168;9.848;2022-12-07T05:01:12;7.07;;;6.43;;
40501;SDS011;29631;49.168;9.848;2022-12-07T05:03:39;7.05;;;6.38;;
40501;SDS011;29631;49.168;9.848;2022-12-07T05:06:05;6.72;;;6.22;;
40501;SDS011;29631;49.168;9.848;2022-12-07T05:08:32;6.53;;;6.03;;
40501;SDS011;29631;49.168;9.848;2022-12-07T05:10:59;7.28;;;6.68;;
40501;SDS011;29631;49.168;9.848;2022-12-07T05:13:26;6.70;;;6.10;;
40501;SDS011;29631;49.168;9.848;2022-12-07T05:15:52;8.38;;;7.45;;
40501;SDS011;29631;49.168;9.848;2022-12-07T05:18:18;10.18;;;9.10;;
40501;SDS011;29631;49.168;9.848;2022-12-07T05:20:44;10.63;;;9.52;;
40501;SDS011;29631;49.168;9.848;2022-12-07T05:23:10;9.57;;;8.68;;
40501;SDS011;29631;49.168;9.848;2022-12-07T05:25:36;10.13;;;9.15;;
40501;SDS011;29631;49.168;9.848;2022-12-07T05:28:03;8.68;;;7.93;;
40501;SDS011;29631;49.168;9.848;2022-12-07T05:30:30;8.20;;;7.50;;
40501;SDS011;29631;49.168;9.848;2022-12-07T05:32:56;7.80;;;7.13;;
40501;SDS011;29631;49.168;9.848;2022-12-07T05:35:22;8.13;;;7.43;;
40501;SDS011;29631;49.168;9.848;2022-12-07T05:37:49;7.53;;;6.93;;
40501;SDS011;29631;49.168;9.848;2022-12-07T05:40:15;7.55;;;6.95;;
40501;SDS011;29631;49.168;9.848;2022-12-07T05:42:41;7.45;;;6.75;;
40501;SDS011;29631;49.168;9.848;2022-12-07T05:45:08;7.25;;;6.65;;
40501;SDS011;29631;49.168;9.848;2022-12-07T05:47:34;7.47;;;6.88;;
40501;SDS011;29631;49.168;9.848;2022-12-07T05:50:00;7.03;;;6.53;;
40501;SDS011;29631;49.168;9.848;2022-12-07T05:52:26;7.28;;;6.68;;
40501;SDS011;29631;49.168;9.848;2022-12-07T05:54:52;7.50;;;6.95;;
40501;SDS011;29631;49.168;9.848;2022-12-07T05:57:18;7.25;;;6.65;;
40501;SDS011;29631;49.168;9.848;2022-12-07T05:59:44;7.07;;;6.40;;
40501;SDS011;29631;49.168;9.848;2022-12-07T06:02:10;6.60;;;6.10;;
40501;SDS011;29631;49.168;9.848;2022-12-07T06:04:40;7.72;;;6.72;;
40501;SDS011;29631;49.168;9.848;2022-12-07T06:07:12;6.80;;;6.20;;
40501;SDS011;29631;49.168;9.848;2022-12-07T06:09:39;8.43;;;7.63;;
40501;SDS011;29631;49.168;9.848;2022-12-07T06:12:05;9.00;;;7.50;;
40501;SDS011;29631;49.168;9.848;2022-12-07T06:14:52;8.32;;;7.55;;
40501;SDS011;29631;49.168;9.848;2022-12-07T06:17:18;8.52;;;7.80;;
40501;SDS011;29631;49.168;9.848;2022-12-07T06:19:44;8.52;;;7.80;;
40501;SDS011;29631;49.168;9.848;2022-12-07T06:22:10;8.07;;;7.38;;
40501;SDS011;29631;49.168;9.848;2022-12-07T06:24:36;8.35;;;7.75;;
40501;SDS011;29631;49.168;9.848;2022-12-07T06:27:03;9.73;;;8.93;;
40501;SDS011;29631;49.168;9.848;2022-12-07T06:29:29;9.95;;;9.00;;
40501;SDS011;29631;49.168;9.848;2022-12-07T06:31:55;8.88;;;8.13;;
40501;SDS011;29631;49.168;9.848;2022-12-07T06:34:21;9.32;;;8.63;;
40501;SDS011;29631;49.168;9.848;2022-12-07T06:36:49;7.53;;;6.93;;
40501;SDS011;29631;49.168;9.848;2022-12-07T06:39:18;7.57;;;6.97;;
40501;SDS011;29631;49.168;9.848;2022-12-07T06:41:46;7.13;;;6.55;;
40501;SDS011;29631;49.168;9.848;2022-12-07T06:44:12;6.95;;;6.38;;
40501;SDS011;29631;49.168;9.848;2022-12-07T06:46:38;6.57;;;5.97;;
40501;SDS011;29631;49.168;9.848;2022-12-07T06:49:04;6.47;;;5.97;;
40501;SDS011;29631;49.168;9.848;2022-12-07T06:51:31;6.30;;;5.80;;
40501;SDS011;29631;49.168;9.848;2022-12-07T06:53:58;6.57;;;5.97;;
40501;SDS011;29631;49.168;9.848;2022-12-07T06:56:24;8.25;;;7.65;;
40501;SDS011;29631;49.168;9.848;2022-12-07T06:58:49;6.85;;;6.35;;
40501;SDS011;29631;49.168;9.848;2022-12-07T07:01:16;6.47;;;5.97;;
40501;SDS011;29631;49.168;9.848;2022-12-07T07:03:43;6.35;;;5.75;;
40501;SDS011;29631;49.168;9.848;2022-12-07T07:06:10;7.28;;;6.68;;
40501;SDS011;29631;49.168;9.848;2022-12-07T07:08:37;6.68;;;6.13;;
40501;SDS011;29631;49.168;9.848;2022-12-07T07:11:04;6.55;;;5.95;;
40501;SDS011;29631;49.168;9.848;2022-12-07T07:13:30;7.25;;;6.55;;
40501;SDS011;29631;49.168;9.848;2022-12-07T07:15:56;6.80;;;6.30;;
40501;SDS011;29631;49.168;9.848;2022-12-07T07:18:22;6.85;;;6.25;;
40501;SDS011;29631;49.168;9.848;2022-12-07T07:20:48;6.18;;;5.68;;
40501;SDS011;29631;49.168;9.848;2022-12-07T07:23:15;6.25;;;5.75;;
40501;SDS011;29631;49.168;9.848;2022-12-07T07:25:41;6.10;;;5.55;;
40501;SDS011;29631;49.168;9.848;2022-12-07T07:28:07;6.57;;;6.07;;
40501;SDS011;29631;49.168;9.848;2022-12-07T07:30:32;7.03;;;6.53;;
40501;SDS011;29631;49.168;9.848;2022-12-07T07:32:59;6.50;;;6.00;;
40501;SDS011;29631;49.168;9.848;2022-12-07T07:35:27;7.40;;;6.80;;
40501;SDS011;29631;49.168;9.848;2022-12-07T07:37:54;6.07;;;5.65;;
40501;SDS011;29631;49.168;9.848;2022-12-07T07:40:20;6.13;;;5.63;;
40501;SDS011;29631;49.168;9.848;2022-12-07T07:42:47;6.60;;;6.03;;
40501;SDS011;29631;49.168;9.848;2022-12-07T07:45:14;5.68;;;5.28;;
40501;SDS011;29631;49.168;9.848;2022-12-07T07:47:40;5.68;;;5.28;;
40501;SDS011;29631;49.168;9.848;2022-12-07T07:50:06;5.32;;;4.93;;
40501;SDS011;29631;49.168;9.848;2022-12-07T07:52:32;5.82;;;5.43;;
40501;SDS011;29631;49.168;9.848;2022-12-07T07:54:57;5.30;;;4.90;;
40501;SDS011;29631;49.168;9.848;2022-12-07T07:57:23;6.05;;;5.55;;
40501;SDS011;29631;49.168;9.848;2022-12-07T07:59:49;5.32;;;4.93;;
40501;SDS011;29631;49.168;9.848;2022-12-07T08:02:16;5.50;;;5.05;;
40501;SDS011;29631;49.168;9.848;2022-12-07T08:04:43;5.80;;;5.30;;
40501;SDS011;29631;49.168;9.848;2022-12-07T08:07:10;6.47;;;5.93;;
40501;SDS011;29631;49.168;9.848;2022-12-07T08:09:37;5.70;;;5.20;;
40501;SDS011;29631;49.168;9.848;2022-12-07T08:12:03;5.85;;;5.45;;
40501;SDS011;29631;49.168;9.848;2022-12-07T08:14:29;5.70;;;5.25;;
40501;SDS011;29631;49.168;9.848;2022-12-07T08:16:55;5.45;;;5.05;;
40501;SDS011;29631;49.168;9.848;2022-12-07T08:19:20;5.47;;;5.07;;
40501;SDS011;29631;49.168;9.848;2022-12-07T08:21:46;5.25;;;4.75;;
40501;SDS011;29631;49.168;9.848;2022-12-07T08:24:12;5.43;;;5.03;;
40501;SDS011;29631;49.168;9.848;2022-12-07T08:26:39;5.25;;;4.85;;
40501;SDS011;29631;49.168;9.848;2022-12-07T08:29:05;5.60;;;5.10;;
40501;SDS011;29631;49.168;9.848;2022-12-07T08:31:31;5.43;;;4.93;;
40501;SDS011;29631;49.168;9.848;2022-12-07T08:33:57;5.22;;;4.82;;
40501;SDS011;29631;49.168;9.848;2022-12-07T08:36:22;5.20;;;4.80;;
40501;SDS011;29631;49.168;9.848;2022-12-07T08:38:48;5.45;;;4.95;;
40501;SDS011;29631;49.168;9.848;2022-12-07T08:41:14;4.75;;;4.35;;
40501;SDS011;29631;49.168;9.848;2022-12-07T08:43:41;5.43;;;5.03;;
40501;SDS011;29631;49.168;9.848;2022-12-07T08:46:14;5.20;;;4.70;;
40501;SDS011;29631;49.168;9.848;2022-12-07T08:49:08;6.00;;;4.68;;
40501;SDS011;29631;49.168;9.848;2022-12-07T08:51:43;4.95;;;4.55;;
40501;SDS011;29631;49.168;9.848;2022-12-07T08:54:10;5.07;;;4.68;;
40501;SDS011;29631;49.168;9.848;2022-12-07T08:56:39;4.95;;;4.55;;
40501;SDS011;29631;49.168;9.848;2022-12-07T08:59:06;4.45;;;4.05;;
40501;SDS011;29631;49.168;9.848;2022-12-07T09:01:33;4.93;;;4.47;;
40501;SDS011;29631;49.168;9.848;2022-12-07T09:03:59;5.05;;;4.65;;
40501;SDS011;29631;49.168;9.848;2022-12-07T09:06:25;5.00;;;4.60;;
40501;SDS011;29631;49.168;9.848;2022-12-07T09:08:52;4.57;;;4.28;;
40501;SDS011;29631;49.168;9.848;2022-12-07T09:11:22;4.75;;;4.35;;
40501;SDS011;29631;49.168;9.848;2022-12-07T09:13:48;4.68;;;4.28;;
40501;SDS011;29631;49.168;9.848;2022-12-07T09:16:14;4.60;;;4.20;;
40501;SDS011;29631;49.168;9.848;2022-12-07T09:18:40;4.78;;;4.45;;
40501;SDS011;29631;49.168;9.848;2022-12-07T09:21:06;4.22;;;3.92;;
40501;SDS011;29631;49.168;9.848;2022-12-07T09:23:32;5.00;;;4.60;;
40501;SDS011;29631;49.168;9.848;2022-12-07T09:26:02;4.32;;;4.03;;
40501;SDS011;29631;49.168;9.848;2022-12-07T09:28:32;6.72;;;6.22;;
40501;SDS011;29631;49.168;9.848;2022-12-07T09:30:58;7.10;;;6.50;;
40501;SDS011;29631;49.168;9.848;2022-12-07T09:33:25;5.90;;;5.40;;
40501;SDS011;29631;49.168;9.848;2022-12-07T09:35:51;4.70;;;4.40;;
40501;SDS011;29631;49.168;9.848;2022-12-07T09:38:17;5.45;;;5.05;;
40501;SDS011;29631;49.168;9.848;2022-12-07T09:40:44;4.40;;;4.10;;
40501;SDS011;29631;49.168;9.848;2022-12-07T09:43:15;4.47;;;4.18;;
40501;SDS011;29631;49.168;9.848;2022-12-07T09:45:45;3.75;;;3.45;;
40501;SDS011;29631;49.168;9.848;2022-12-07T09:48:35;4.05;;;3.65;;
40501;SDS011;29631;49.168;9.848;2022-12-07T09:51:10;3.85;;;3.55;;
40501;SDS011;29631;49.168;9.848;2022-12-07T09:53:44;3.72;;;3.25;;
40501;SDS011;29631;49.168;9.848;2022-12-07T09:56:14;3.80;;;3.55;;
40501;SDS011;29631;49.168;9.848;2022-12-07T09:58:42;4.05;;;3.67;;
40501;SDS011;29631;49.168;9.848;2022-12-07T10:03:47;4.03;;;3.72;;
40501;SDS011;29631;49.168;9.848;2022-12-07T10:06:26;4.47;;;4.07;;
40501;SDS011;29631;49.168;9.848;2022-12-07T10:08:51;3.97;;;3.67;;
40501;SDS011;29631;49.168;9.848;2022-12-07T10:11:17;4.88;;;3.97;;
40501;SDS011;29631;49.168;9.848;2022-12-07T10:13:44;4.22;;;3.92;;
40501;SDS011;29631;49.168;9.848;2022-12-07T10:19:17;3.92;;;3.63;;
40501;SDS011;29631;49.168;9.848;2022-12-07T10:22:09;3.65;;;3.35;;
40501;SDS011;29631;49.168;9.848;2022-12-07T10:24:43;3.50;;;3.30;;
40501;SDS011;29631;49.168;9.848;2022-12-07T10:27:21;3.70;;;3.50;;
40501;SDS011;29631;49.168;9.848;2022-12-07T10:29:55;4.30;;;3.90;;
40501;SDS011;29631;49.168;9.848;2022-12-07T10:35:34;4.72;;;4.43;;
40501;SDS011;29631;49.168;9.848;2022-12-07T10:37:55;4.50;;;4.10;;
40501;SDS011;29631;49.168;9.848;2022-12-07T10:43:06;4.10;;;3.80;;
40501;SDS011;29631;49.168;9.848;2022-12-07T10:45:41;4.22;;;3.83;;
40501;SDS011;29631;49.168;9.848;2022-12-07T10:48:19;4.75;;;4.07;;
40501;SDS011;29631;49.168;9.848;2022-12-07T10:51:32;4.32;;;4.03;;
40501;SDS011;29631;49.168;9.848;2022-12-07T11:00:19;4.68;;;4.28;;
40501;SDS011;29631;49.168;9.848;2022-12-07T11:05:39;8.80;;;8.20;;
40501;SDS011;29631;49.168;9.848;2022-12-07T11:09:11;6.43;;;5.93;;
40501;SDS011;29631;49.168;9.848;2022-12-07T11:17:56;5.07;;;4.68;;
40501;SDS011;29631;49.168;9.848;2022-12-07T11:20:35;4.13;;;3.78;;
40501;SDS011;29631;49.168;9.848;2022-12-07T11:23:48;4.25;;;3.92;;
40501;SDS011;29631;49.168;9.848;2022-12-07T11:32:17;6.20;;;5.60;;
40501;SDS011;29631;49.168;9.848;2022-12-07T11:38:02;5.68;;;5.18;;
40501;SDS011;29631;49.168;9.848;2022-12-07T11:40:58;4.55;;;4.05;;
40501;SDS011;29631;49.168;9.848;2022-12-07T11:44:14;4.55;;;4.15;;
40501;SDS011;29631;49.168;9.848;2022-12-07T11:46:51;4.40;;;4.00;;
40501;SDS011;29631;49.168;9.848;2022-12-07T11:49:47;4.60;;;4.22;;
40501;SDS011;29631;49.168;9.848;2022-12-07T11:55:40;4.03;;;3.63;;
40501;SDS011;29631;49.168;9.848;2022-12-07T12:01:29;36.20;;;23.98;;
40501;SDS011;29631;49.168;9.848;2022-12-07T12:06:35;9.85;;;8.85;;
40501;SDS011;29631;49.168;9.848;2022-12-07T12:09:15;7.75;;;6.95;;
40501;SDS011;29631;49.168;9.848;2022-12-07T12:17:54;5.43;;;4.93;;
40501;SDS011;29631;49.168;9.848;2022-12-07T12:20:30;4.88;;;4.47;;
40501;SDS011;29631;49.168;9.848;2022-12-07T12:23:04;5.25;;;4.75;;
40501;SDS011;29631;49.168;9.848;2022-12-07T12:31:14;5.13;;;4.72;;
40501;SDS011;29631;49.168;9.848;2022-12-07T12:33:52;6.13;;;5.53;;
40501;SDS011;29631;49.168;9.848;2022-12-07T12:51:54;6.97;;;6.38;;
40501;SDS011;29631;49.168;9.848;2022-12-07T12:54:28;6.95;;;6.35;;
40501;SDS011;29631;49.168;9.848;2022-12-07T12:57:04;7.05;;;6.45;;
40501;SDS011;29631;49.168;9.848;2022-12-07T13:08:24;5.60;;;5.10;;
40501;SDS011;29631;49.168;9.848;2022-12-07T13:10:46;5.32;;;4.93;;
40501;SDS011;29631;49.168;9.848;2022-12-07T13:15:47;5.70;;;5.28;;
40501;SDS011;29631;49.168;9.848;2022-12-07T13:18:40;5.05;;;4.65;;
40501;SDS011;29631;49.168;9.848;2022-12-07T13:28:48;5.38;;;4.88;;
40501;SDS011;29631;49.168;9.848;2022-12-07T13:39:45;5.15;;;4.75;;
40501;SDS011;29631;49.168;9.848;2022-12-07T13:42:33;7.63;;;6.85;;
40501;SDS011;29631;49.168;9.848;2022-12-07T13:45:13;5.82;;;5.32;;
40501;SDS011;29631;49.168;9.848;2022-12-07T13:51:01;6.28;;;5.78;;
40501;SDS011;29631;49.168;9.848;2022-12-07T13:53:28;6.28;;;5.68;;
40501;SDS011;29631;49.168;9.848;2022-12-07T13:55:56;6.28;;;5.78;;
40501;SDS011;29631;49.168;9.848;2022-12-07T13:58:27;9.98;;;8.30;;
40501;SDS011;29631;49.168;9.848;2022-12-07T14:00:57;10.60;;;9.02;;
40501;SDS011;29631;49.168;9.848;2022-12-07T14:03:29;10.60;;;9.45;;
40501;SDS011;29631;49.168;9.848;2022-12-07T14:06:12;9.80;;;8.80;;
40501;SDS011;29631;49.168;9.848;2022-12-07T14:08:47;8.43;;;7.63;;
40501;SDS011;29631;49.168;9.848;2022-12-07T14:11:14;8.07;;;7.32;;
40501;SDS011;29631;49.168;9.848;2022-12-07T14:13:47;18.17;;;14.88;;
40501;SDS011;29631;49.168;9.848;2022-12-07T14:16:30;12.20;;;11.00;;
40501;SDS011;29631;49.168;9.848;2022-12-07T14:19:06;12.10;;;10.77;;
40501;SDS011;29631;49.168;9.848;2022-12-07T14:22:21;8.32;;;7.40;;
40501;SDS011;29631;49.168;9.848;2022-12-07T14:27:49;7.95;;;7.25;;
40501;SDS011;29631;49.168;9.848;2022-12-07T14:30:24;8.38;;;7.50;;
40501;SDS011;29631;49.168;9.848;2022-12-07T14:33:00;6.40;;;5.90;;
40501;SDS011;29631;49.168;9.848;2022-12-07T14:35:28;6.18;;;5.68;;
40501;SDS011;29631;49.168;9.848;2022-12-07T14:37:55;5.65;;;5.15;;
40501;SDS011;29631;49.168;9.848;2022-12-07T14:40:25;7.22;;;6.68;;
40501;SDS011;29631;49.168;9.848;2022-12-07T14:42:54;6.28;;;5.75;;
40501;SDS011;29631;49.168;9.848;2022-12-07T14:45:26;6.65;;;6.05;;
40501;SDS011;29631;49.168;9.848;2022-12-07T14:47:52;6.20;;;5.70;;
40501;SDS011;29631;49.168;9.848;2022-12-07T14:50:18;5.25;;;4.85;;
40501;SDS011;29631;49.168;9.848;2022-12-07T14:52:53;5.10;;;4.70;;
40501;SDS011;29631;49.168;9.848;2022-12-07T14:55:26;5.57;;;5.03;;
40501;SDS011;29631;49.168;9.848;2022-12-07T14:57:54;4.50;;;4.10;;
40501;SDS011;29631;49.168;9.848;2022-12-07T15:00:21;5.20;;;4.78;;
40501;SDS011;29631;49.168;9.848;2022-12-07T15:02:49;5.03;;;4.63;;
40501;SDS011;29631;49.168;9.848;2022-12-07T15:05:16;5.32;;;4.82;;
40501;SDS011;29631;49.168;9.848;2022-12-07T15:07:43;6.20;;;5.68;;
40501;SDS011;29631;49.168;9.848;2022-12-07T15:10:21;6.22;;;5.70;;
40501;SDS011;29631;49.168;9.848;2022-12-07T15:12:54;6.93;;;6.03;;
40501;SDS011;29631;49.168;9.848;2022-12-07T15:15:50;6.72;;;6.03;;
40501;SDS011;29631;49.168;9.848;2022-12-07T15:18:18;5.95;;;5.45;;
40501;SDS011;29631;49.168;9.848;2022-12-07T15:20:46;6.28;;;5.68;;
40501;SDS011;29631;49.168;9.848;2022-12-07T15:23:12;5.35;;;4.95;;
40501;SDS011;29631;49.168;9.848;2022-12-07T15:25:41;6.88;;;5.28;;
40501;SDS011;29631;49.168;9.848;2022-12-07T15:28:12;5.35;;;4.85;;
40501;SDS011;29631;49.168;9.848;2022-12-07T15:30:39;6.13;;;5.47;;
40501;SDS011;29631;49.168;9.848;2022-12-07T15:33:10;5.38;;;4.88;;
40501;SDS011;29631;49.168;9.848;2022-12-07T15:35:43;5.40;;;4.90;;
40501;SDS011;29631;49.168;9.848;2022-12-07T15:38:10;5.55;;;5.05;;
40501;SDS011;29631;49.168;9.848;2022-12-07T15:40:36;5.43;;;4.93;;
40501;SDS011;29631;49.168;9.848;2022-12-07T15:43:02;5.20;;;4.70;;
40501;SDS011;29631;49.168;9.848;2022-12-07T15:45:29;5.22;;;4.82;;
40501;SDS011;29631;49.168;9.848;2022-12-07T15:47:54;5.32;;;4.82;;
40501;SDS011;29631;49.168;9.848;2022-12-07T15:50:20;5.43;;;4.97;;
40501;SDS011;29631;49.168;9.848;2022-12-07T15:52:47;6.78;;;5.13;;
40501;SDS011;29631;49.168;9.848;2022-12-07T15:55:13;4.78;;;4.38;;
40501;SDS011;29631;49.168;9.848;2022-12-07T15:57:40;5.80;;;5.15;;
40501;SDS011;29631;49.168;9.848;2022-12-07T16:00:06;4.78;;;4.38;;
40501;SDS011;29631;49.168;9.848;2022-12-07T16:02:36;5.22;;;4.82;;
40501;SDS011;29631;49.168;9.848;2022-12-07T16:05:02;4.82;;;4.43;;
40501;SDS011;29631;49.168;9.848;2022-12-07T16:07:28;6.72;;;6.13;;
40501;SDS011;29631;49.168;9.848;2022-12-07T16:09:53;6.60;;;6.00;;
40501;SDS011;29631;49.168;9.848;2022-12-07T16:12:19;9.57;;;8.57;;
40501;SDS011;29631;49.168;9.848;2022-12-07T16:14:45;10.00;;;8.40;;
40501;SDS011;29631;49.168;9.848;2022-12-07T16:17:11;10.20;;;9.20;;
40501;SDS011;29631;49.168;9.848;2022-12-07T16:19:37;10.63;;;8.77;;
40501;SDS011;29631;49.168;9.848;2022-12-07T16:22:04;11.70;;;10.50;;
40501;SDS011;29631;49.168;9.848;2022-12-07T16:24:30;11.43;;;10.18;;
40501;SDS011;29631;49.168;9.848;2022-12-07T16:26:56;11.48;;;10.30;;
40501;SDS011;29631;49.168;9.848;2022-12-07T16:29:22;9.88;;;8.88;;
40501;SDS011;29631;49.168;9.848;2022-12-07T16:31:48;11.70;;;10.18;;
40501;SDS011;29631;49.168;9.848;2022-12-07T16:34:15;9.23;;;8.20;;
40501;SDS011;29631;49.168;9.848;2022-12-07T16:36:42;10.05;;;8.43;;
40501;SDS011;29631;49.168;9.848;2022-12-07T16:39:08;8.80;;;7.95;;
40501;SDS011;29631;49.168;9.848;2022-12-07T16:41:33;10.70;;;9.02;;
40501;SDS011;29631;49.168;9.848;2022-12-07T16:44:02;9.77;;;8.88;;
40501;SDS011;29631;49.168;9.848;2022-12-07T16:46:31;7.85;;;7.10;;
40501;SDS011;29631;49.168;9.848;2022-12-07T16:48:58;7.28;;;6.68;;
40501;SDS011;29631;49.168;9.848;2022-12-07T16:51:24;6.50;;;5.90;;
40501;SDS011;29631;49.168;9.848;2022-12-07T16:53:50;6.07;;;5.57;;
40501;SDS011;29631;49.168;9.848;2022-12-07T16:56:18;7.00;;;6.40;;
40501;SDS011;29631;49.168;9.848;2022-12-07T16:58:44;7.35;;;6.63;;
40501;SDS011;29631;49.168;9.848;2022-12-07T17:01:12;7.03;;;6.43;;
40501;SDS011;29631;49.168;9.848;2022-12-07T17:03:44;6.00;;;5.50;;
40501;SDS011;29631;49.168;9.848;2022-12-07T17:06:14;6.25;;;5.65;;
40501;SDS011;29631;49.168;9.848;2022-12-07T17:08:46;6.95;;;6.07;;
40501;SDS011;29631;49.168;9.848;2022-12-07T17:11:14;5.60;;;5.18;;
40501;SDS011;29631;49.168;9.848;2022-12-07T17:13:49;5.85;;;5.35;;
40501;SDS011;29631;49.168;9.848;2022-12-07T17:16:34;5.97;;;5.40;;
40501;SDS011;29631;49.168;9.848;2022-12-07T17:19:03;5.43;;;4.97;;
40501;SDS011;29631;49.168;9.848;2022-12-07T17:21:30;6.43;;;5.93;;